Aérodrome :
LOGIN :

S'inscrire | Disclaimer

   EN    FR    IT 

 










Légende :    VFR   VFR Marginal   IFR   IFR Intensif   IFR Très Intensif
Visi : 
Plafond : 
>= 8 km
>= 3000ft
5 à 8 km
1000 à 3000 ft
1500m à 5 km
500 à 1000 ft
800 à 1500m
200 à 500 ft
< 800m
< 200 ft
Symboles :   Orages  Brouillard  Fortes neiges  Fortes précipitations  Vent > 20 kt
SIGMETs :   Divers  Orages  Givrage  Turbulence  Onde Orograph.  Cendres Volcan.






- Altitude de l'aérodrome : 203 ft
- Code IATA : XMJ


LFBM - Mont-De-Marsan

DERNIER METAR :
  • 100500Z AUTO 00000KT 4000 1000 R27/P2000 BR BKN041 OVC054 05/04 Q1031 NOSIG

METARs EXPIRÉS :
  • 100430Z AUTO 14002KT 1000 0500 R27/1500U BCFG BKN038 BKN046 BKN058 06/05 Q1030 TEMPO 3500 BR
  • 100400Z AUTO 00000KT 1100 1000 R27/1300U BR BKN035 BKN056 07/06 Q1031 TEMPO 3500 BR
  • 100330Z AUTO VRB01KT 1100 0900 R27/1100U BCFG NSC 07/06 Q1031 TEMPO 3500 BR
  • 100300Z AUTO 00000KT 4900 0650 R27/P2000 BCFG FEW039 SCT045 BKN056 07/07 Q1031 BECMG 9999 NSW
  • 100230Z AUTO VRB01KT 9999 SCT040 OVC054 08/07 Q1031 NOSIG

TAF TAF LFBM
Valide du 10 à 03h jusqu'au 11 à 03h UTC


100200Z 1003/1103 11005KT 9999 BKN030
TEMPO 1005/1009 3500 BR
FM101000 11010KT CAVOK
BECMG 1100/1103 RA BKN035



MET'MAP, la Météo Aéronautique d'un coup d'oeil ! - Copyright ORBIFLY Décembre 2007 - Disclaimer

ORBIFLY MET'MAP TEAM :

Programmation & Développement : Alexandra Zaïnal
Sur une idée originale de : Baudouin d'Aumeries
Assistance à la programmation : Marc-Olivier Méhu
Soutien technique & logistique : Manuel Goepfert

Contact : metmap@orbifly.com




SOURCES & CREDITS :

   NOAA